createdAt,value
2022-11-29T00:01:23.690Z,101077.44
2022-11-29T00:03:50.869Z,101074.19
2022-11-29T00:06:21.216Z,101067.63
2022-11-29T00:08:49.065Z,101065.34
2022-11-29T00:11:40.566Z,101069.72
2022-11-29T00:14:09.485Z,101069.06
2022-11-29T00:16:36.922Z,101081.19
2022-11-29T00:19:04.168Z,101087.47
2022-11-29T00:21:31.016Z,101087.56
2022-11-29T00:23:57.935Z,101088.63
2022-11-29T00:26:25.127Z,101087.75
2022-11-29T00:28:52.138Z,101088.91
2022-11-29T00:31:20.515Z,101070.84
2022-11-29T00:33:47.733Z,101079.78
2022-11-29T00:36:15.615Z,101092.69
2022-11-29T00:38:42.800Z,101094.47
2022-11-29T00:41:10.660Z,101103.47
2022-11-29T00:43:38.136Z,101102.16
2022-11-29T00:46:05.493Z,101098.78
2022-11-29T00:48:32.791Z,101119.72
2022-11-29T00:50:59.858Z,101121.56
2022-11-29T00:53:29.805Z,101125.19
2022-11-29T00:55:57.025Z,101104.56
2022-11-29T00:58:24.054Z,101127.97
2022-11-29T01:00:52.823Z,101127.28
2022-11-29T01:03:19.765Z,101120.28
2022-11-29T01:05:47.140Z,101121.25
2022-11-29T01:08:15.147Z,101122.19
2022-11-29T01:10:42.595Z,101119.69
2022-11-29T01:13:10.653Z,101105.13
2022-11-29T01:15:37.675Z,101123.25
2022-11-29T01:18:04.672Z,101136.50
2022-11-29T01:20:31.750Z,101133.06
2022-11-29T01:22:59.171Z,101134.94
2022-11-29T01:25:26.142Z,101130.69
2022-11-29T01:27:53.038Z,101132.50
2022-11-29T01:30:20.085Z,101133.50
2022-11-29T01:32:46.998Z,101140.56
2022-11-29T01:35:13.913Z,101144.19
2022-11-29T01:37:40.751Z,101153.00
2022-11-29T01:40:08.213Z,101149.72
2022-11-29T01:42:35.193Z,101157.56
2022-11-29T01:45:21.057Z,101163.81
2022-11-29T01:47:50.161Z,101170.03
2022-11-29T01:50:17.288Z,101163.13
2022-11-29T01:52:44.876Z,101165.78
2022-11-29T01:55:12.423Z,101164.09
2022-11-29T01:57:41.669Z,101165.91
2022-11-29T02:00:13.302Z,101173.88
2022-11-29T02:02:45.149Z,101169.59
2022-11-29T02:05:14.766Z,101176.66
2022-11-29T02:07:45.958Z,101174.09
2022-11-29T02:10:13.590Z,101179.41
2022-11-29T02:13:17.921Z,101173.34
2022-11-29T02:16:12.621Z,101183.09
2022-11-29T02:18:51.910Z,101184.88
2022-11-29T02:21:38.370Z,101189.38
2022-11-29T02:24:32.087Z,101190.34
2022-11-29T02:27:34.384Z,101193.97
2022-11-29T02:30:40.047Z,101176.66
2022-11-29T02:33:32.644Z,101191.34
2022-11-29T02:36:23.291Z,101201.94
2022-11-29T02:39:25.196Z,101193.31
2022-11-29T02:42:22.255Z,101184.84
2022-11-29T02:45:22.142Z,101197.78
2022-11-29T02:47:48.998Z,101184.91
2022-11-29T02:50:28.628Z,101200.53
2022-11-29T02:53:06.752Z,101184.16
2022-11-29T02:55:36.578Z,101200.53
2022-11-29T02:58:35.361Z,101197.97
2022-11-29T03:01:17.157Z,101180.81
2022-11-29T03:03:53.552Z,101191.94
2022-11-29T03:06:34.211Z,101192.88
2022-11-29T03:09:23.250Z,101187.91
2022-11-29T03:12:04.919Z,101182.75
2022-11-29T03:14:50.755Z,101196.44
2022-11-29T03:17:23.847Z,101198.19
2022-11-29T03:20:12.624Z,101203.56
2022-11-29T03:23:08.337Z,101201.91
2022-11-29T03:26:00.175Z,101222.06
2022-11-29T03:28:38.658Z,101201.38
2022-11-29T03:31:16.409Z,101216.06
2022-11-29T03:33:48.879Z,101202.88
2022-11-29T03:36:37.185Z,101215.25
2022-11-29T03:39:10.885Z,101224.00
2022-11-29T03:41:48.770Z,101214.75
2022-11-29T03:44:26.558Z,101226.75
2022-11-29T03:47:05.054Z,101229.47
2022-11-29T03:49:38.145Z,101213.16
2022-11-29T03:52:23.557Z,101233.97
2022-11-29T03:55:06.166Z,101216.78
2022-11-29T03:58:00.946Z,101223.88
2022-11-29T04:00:47.970Z,101247.28
2022-11-29T04:03:30.037Z,101264.91
2022-11-29T04:06:22.134Z,101247.72
2022-11-29T04:09:07.179Z,101261.44
2022-11-29T04:11:59.143Z,101270.22
2022-11-29T04:14:49.483Z,101265.03
2022-11-29T04:17:36.539Z,101270.31
2022-11-29T04:20:45.309Z,101272.16
2022-11-29T04:23:35.649Z,101279.19
2022-11-29T04:26:14.394Z,101277.41
2022-11-29T04:29:02.355Z,101295.97
2022-11-29T04:32:18.688Z,101291.84
2022-11-29T04:34:45.850Z,101303.88
2022-11-29T04:37:45.643Z,101307.44
2022-11-29T04:40:42.364Z,101305.69
2022-11-29T04:43:36.347Z,101304.00
2022-11-29T04:46:12.450Z,101297.78
2022-11-29T04:48:41.935Z,101298.72
2022-11-29T04:51:18.316Z,101298.75
2022-11-29T04:54:12.110Z,101290.34
2022-11-29T04:56:50.386Z,101312.88
2022-11-29T04:59:32.269Z,101316.38
2022-11-29T05:02:04.792Z,101314.66
2022-11-29T05:04:44.040Z,101301.00
2022-11-29T05:07:29.826Z,101313.03
2022-11-29T05:10:05.376Z,101302.84
2022-11-29T05:12:50.819Z,101323.56
2022-11-29T05:15:45.058Z,101313.38
2022-11-29T05:18:17.858Z,101321.31
2022-11-29T05:21:26.067Z,101334.19
2022-11-29T05:24:07.650Z,101343.91
2022-11-29T05:26:49.433Z,101342.09
2022-11-29T05:29:39.443Z,101338.66
2022-11-29T05:32:24.559Z,101331.13
2022-11-29T05:34:54.232Z,101351.03
2022-11-29T05:37:54.727Z,101338.09
2022-11-29T05:40:44.141Z,101357.13
2022-11-29T05:43:32.357Z,101364.25
2022-11-29T05:46:19.027Z,101362.53
2022-11-29T05:48:54.987Z,101366.94
2022-11-29T05:51:23.600Z,101375.72
2022-11-29T05:54:52.595Z,101381.03
2022-11-29T05:57:34.819Z,101383.72
2022-11-29T06:00:04.440Z,101369.97
2022-11-29T06:02:54.171Z,101388.75
2022-11-29T06:05:49.901Z,101369.41
2022-11-29T06:08:42.326Z,101393.41
2022-11-29T06:11:37.270Z,101383.94
2022-11-29T06:14:41.905Z,101397.06
2022-11-29T06:17:39.869Z,101406.09
2022-11-29T06:20:16.425Z,101405.34
2022-11-29T06:23:24.013Z,101414.00
2022-11-29T06:26:09.849Z,101404.38
2022-11-29T06:28:55.576Z,101412.16
2022-11-29T06:31:52.490Z,101413.03
2022-11-29T06:34:31.622Z,101424.44
2022-11-29T06:37:09.499Z,101419.09
2022-11-29T06:39:36.672Z,101423.47
2022-11-29T06:42:03.782Z,101405.34
2022-11-29T06:44:30.958Z,101431.31
2022-11-29T06:47:08.478Z,101432.19
2022-11-29T06:49:58.566Z,101418.25
2022-11-29T06:52:47.012Z,101427.44
2022-11-29T06:56:01.472Z,101436.22
2022-11-29T06:58:36.017Z,101414.63
2022-11-29T07:01:15.565Z,101438.94
2022-11-29T07:04:06.590Z,101441.59
2022-11-29T07:06:35.268Z,101435.44
2022-11-29T07:09:13.645Z,101442.44
2022-11-29T07:11:40.989Z,101438.03
2022-11-29T07:14:08.244Z,101446.81
2022-11-29T07:16:55.854Z,101445.03
2022-11-29T07:19:33.008Z,101449.47
2022-11-29T07:22:29.695Z,101437.47
2022-11-29T07:25:08.460Z,101453.75
2022-11-29T07:28:13.935Z,101454.63
2022-11-29T07:30:46.708Z,101458.78
2022-11-29T07:33:55.606Z,101455.91
2022-11-29T07:36:31.136Z,101460.84
2022-11-29T07:39:16.458Z,101461.75
2022-11-29T07:42:15.941Z,101439.81
2022-11-29T07:45:02.955Z,101455.81
2022-11-29T07:47:35.333Z,101459.94
2022-11-29T07:50:02.968Z,101451.03
2022-11-29T07:52:29.884Z,101458.00
2022-11-29T07:54:56.819Z,101455.34
2022-11-29T07:57:23.802Z,101440.50
2022-11-29T07:59:50.689Z,101439.56
2022-11-29T08:02:30.312Z,101454.19
2022-11-29T08:04:57.344Z,101457.75
2022-11-29T08:07:24.810Z,101463.06
2022-11-29T08:09:51.796Z,101471.78
2022-11-29T08:12:18.732Z,101473.53
2022-11-29T08:14:45.916Z,101468.16
2022-11-29T08:17:13.020Z,101469.84
2022-11-29T08:19:40.092Z,101480.41
2022-11-29T08:22:07.528Z,101479.56
2022-11-29T08:24:34.508Z,101485.66
2022-11-29T08:27:01.447Z,101490.94
2022-11-29T08:29:28.388Z,101500.56
2022-11-29T08:31:55.875Z,101495.38
2022-11-29T08:34:24.912Z,101498.84
2022-11-29T08:36:52.073Z,101489.94
2022-11-29T08:39:18.862Z,101495.22
2022-11-29T08:41:45.912Z,101501.38
2022-11-29T08:44:12.967Z,101504.84
2022-11-29T08:46:58.401Z,101503.88
2022-11-29T08:49:25.558Z,101496.69
2022-11-29T08:52:16.287Z,101489.97
2022-11-29T08:54:43.721Z,101493.69
2022-11-29T08:57:38.413Z,101506.56
2022-11-29T08:59:58.296Z,101516.19
2022-11-29T09:02:25.529Z,101519.69
2022-11-29T09:04:52.658Z,101503.31
2022-11-29T09:07:19.855Z,101523.28
2022-11-29T09:09:46.948Z,101521.50
2022-11-29T09:12:14.255Z,101521.56
2022-11-29T09:14:41.553Z,101521.56
2022-11-29T09:17:08.597Z,101518.88
2022-11-29T09:19:35.869Z,101515.38
2022-11-29T09:22:03.803Z,101499.00
2022-11-29T09:24:31.262Z,101520.66
2022-11-29T09:26:58.375Z,101522.44
2022-11-29T09:29:25.362Z,101522.44
2022-11-29T09:31:52.687Z,101526.84
2022-11-29T09:34:19.913Z,101531.06
2022-11-29T09:36:46.971Z,101523.78
2022-11-29T09:39:16.437Z,101526.63
2022-11-29T09:41:58.772Z,101519.13
2022-11-29T09:44:47.041Z,101534.75
2022-11-29T09:47:30.060Z,101528.59
2022-11-29T09:50:19.067Z,101540.91
2022-11-29T09:53:12.955Z,101529.00
2022-11-29T09:56:13.560Z,101542.75
2022-11-29T09:58:59.316Z,101540.97
2022-11-29T10:01:33.976Z,101545.38
2022-11-29T10:04:14.310Z,101547.94
2022-11-29T10:06:50.948Z,101553.22
2022-11-29T10:09:26.620Z,101538.28
2022-11-29T10:12:11.661Z,101558.69
2022-11-29T10:14:57.535Z,101558.44
2022-11-29T10:17:33.226Z,101562.44
2022-11-29T10:20:23.953Z,101544.03
2022-11-29T10:22:53.881Z,101560.28
2022-11-29T10:25:25.795Z,101554.19
2022-11-29T10:27:53.717Z,101549.78
2022-11-29T10:30:21.071Z,101547.09
2022-11-29T10:33:01.135Z,101535.09
2022-11-29T10:35:29.958Z,101543.69
2022-11-29T10:40:54.345Z,101548.09
2022-11-29T10:43:21.431Z,101554.31
2022-11-29T10:45:56.409Z,101562.16
2022-11-29T10:48:27.624Z,101549.88
2022-11-29T10:50:54.646Z,101556.00
2022-11-29T10:53:37.705Z,101563.91
2022-11-29T10:56:07.528Z,101562.06
2022-11-29T10:58:35.374Z,101564.63
2022-11-29T11:01:02.488Z,101570.56
2022-11-29T11:03:32.730Z,101557.75
2022-11-29T11:06:07.448Z,101567.84
2022-11-29T11:08:35.869Z,101554.50
2022-11-29T11:11:05.108Z,101560.47
2022-11-29T11:13:33.084Z,101559.44
2022-11-29T11:16:10.652Z,101571.72
2022-11-29T11:18:38.792Z,101565.56
2022-11-29T11:21:10.968Z,101559.31
2022-11-29T11:23:43.683Z,101560.13
2022-11-29T11:26:13.715Z,101561.97
2022-11-29T11:28:44.069Z,101557.56
2022-11-29T11:31:13.162Z,101550.84
2022-11-29T11:33:46.800Z,101560.06
2022-11-29T11:36:19.687Z,101567.00
2022-11-29T11:38:57.251Z,101561.88
2022-11-29T11:41:55.699Z,101570.72
2022-11-29T11:44:51.718Z,101565.34
2022-11-29T11:47:24.688Z,101555.91
2022-11-29T11:49:57.261Z,101571.91
2022-11-29T11:52:28.878Z,101568.97
2022-11-29T11:54:59.473Z,101566.88
2022-11-29T11:57:27.739Z,101578.13
2022-11-29T12:00:06.464Z,101567.84
2022-11-29T12:02:40.918Z,101579.00
2022-11-29T12:05:19.937Z,101577.28
2022-11-29T12:08:07.909Z,101574.69
2022-11-29T12:10:38.906Z,101570.31
2022-11-29T12:13:06.094Z,101572.97
2022-11-29T12:15:38.992Z,101571.19
2022-11-29T12:18:30.050Z,101568.56
2022-11-29T12:21:06.117Z,101571.25
2022-11-29T12:23:46.542Z,101554.03
2022-11-29T12:26:56.794Z,101565.13
2022-11-29T12:29:28.637Z,101573.94
2022-11-29T12:32:19.326Z,101577.44
2022-11-29T12:34:56.202Z,101587.09
2022-11-29T12:37:35.762Z,101580.06
2022-11-29T12:40:26.906Z,101561.06
2022-11-29T12:43:04.575Z,101578.34
2022-11-29T12:45:55.996Z,101577.44
2022-11-29T12:48:29.049Z,101574.94
2022-11-29T12:51:42.405Z,101576.63
2022-11-29T12:54:38.657Z,101573.09
2022-11-29T12:57:17.832Z,101569.59
2022-11-29T13:00:13.639Z,101574.84
2022-11-29T13:02:59.251Z,101570.47
2022-11-29T13:05:41.403Z,101570.47
2022-11-29T13:08:11.518Z,101572.31
2022-11-29T13:11:04.517Z,101557.59
2022-11-29T13:14:34.704Z,101576.66
2022-11-29T13:17:06.091Z,101560.13
2022-11-29T13:20:04.770Z,101572.94
2022-11-29T13:22:48.783Z,101576.47
2022-11-29T13:25:21.722Z,101576.44
2022-11-29T13:28:02.050Z,101576.47
2022-11-29T13:30:29.177Z,101582.66
2022-11-29T13:33:20.249Z,101579.09
2022-11-29T13:36:08.354Z,101569.53
2022-11-29T13:38:37.316Z,101574.78
2022-11-29T13:41:22.004Z,101567.69
2022-11-29T13:43:58.227Z,101562.41
2022-11-29T13:46:36.783Z,101556.25
2022-11-29T13:49:04.020Z,101547.81
2022-11-29T13:51:33.201Z,101562.44
2022-11-29T13:54:03.519Z,101549.50
2022-11-29T13:56:46.776Z,101560.66
2022-11-29T13:59:28.207Z,101563.28
2022-11-29T14:01:57.418Z,101565.13
2022-11-29T14:04:35.103Z,101570.38
2022-11-29T14:07:16.698Z,101563.38
2022-11-29T14:10:28.418Z,101549.66
2022-11-29T14:12:57.935Z,101546.22
2022-11-29T14:15:31.746Z,101565.22
2022-11-29T14:18:07.681Z,101570.53
2022-11-29T14:20:43.804Z,101570.56
2022-11-29T14:23:16.631Z,101572.31
2022-11-29T14:26:03.551Z,101577.59
2022-11-29T14:28:31.997Z,101560.34
2022-11-29T14:31:04.143Z,101573.50
2022-11-29T14:33:52.666Z,101583.72
2022-11-29T14:36:40.239Z,101563.78
2022-11-29T14:39:51.206Z,101577.63
2022-11-29T14:42:20.941Z,101556.88
2022-11-29T14:44:52.042Z,101577.63
2022-11-29T14:47:33.358Z,101570.66
2022-11-29T14:50:04.389Z,101575.94
2022-11-29T14:52:39.916Z,101578.53
2022-11-29T14:55:26.942Z,101581.19
2022-11-29T14:57:55.134Z,101575.94
2022-11-29T15:00:23.744Z,101581.19
2022-11-29T15:03:18.110Z,101581.19
2022-11-29T15:05:49.223Z,101590.03
2022-11-29T15:08:28.153Z,101586.53
2022-11-29T15:11:10.439Z,101593.56
2022-11-29T15:13:42.771Z,101592.75
2022-11-29T15:16:27.056Z,101594.59
2022-11-29T15:19:13.662Z,101593.66
2022-11-29T15:22:15.008Z,101577.28
2022-11-29T15:25:00.405Z,101578.25
2022-11-29T15:27:27.909Z,101599.00
2022-11-29T15:29:55.427Z,101599.00
2022-11-29T15:32:29.834Z,101604.41
2022-11-29T15:34:57.951Z,101601.78
2022-11-29T15:37:39.762Z,101597.41
2022-11-29T15:40:13.702Z,101583.59
2022-11-29T15:42:43.485Z,101601.78
2022-11-29T15:45:29.093Z,101607.06
2022-11-29T15:48:11.114Z,101608.88
2022-11-29T15:50:40.339Z,101610.66
2022-11-29T15:53:12.526Z,101608.09
2022-11-29T15:55:40.004Z,101607.22
2022-11-29T15:58:09.014Z,101613.38
2022-11-29T16:00:36.758Z,101618.63
2022-11-29T16:03:06.220Z,101626.53
2022-11-29T16:05:38.807Z,101625.66
2022-11-29T16:08:16.138Z,101630.91
2022-11-29T16:10:53.757Z,101639.69
2022-11-29T16:13:26.688Z,101636.19
2022-11-29T16:16:15.851Z,101638.00
2022-11-29T16:18:45.539Z,101644.09
2022-11-29T16:21:33.153Z,101638.91
2022-11-29T16:24:13.004Z,101619.88
2022-11-29T16:26:46.726Z,101639.78
2022-11-29T16:29:36.843Z,101638.03
2022-11-29T16:32:22.716Z,101643.94
2022-11-29T16:34:50.096Z,101643.31
2022-11-29T16:37:20.928Z,101649.13
2022-11-29T16:39:51.056Z,101655.00
2022-11-29T16:42:28.347Z,101648.84
2022-11-29T16:44:55.396Z,101657.63
2022-11-29T16:47:26.794Z,101654.97
2022-11-29T16:50:03.385Z,101656.69
2022-11-29T16:52:32.526Z,101661.97
2022-11-29T16:55:00.283Z,101658.47
2022-11-29T16:57:29.219Z,101661.91
2022-11-29T16:59:56.324Z,101669.78
2022-11-29T17:02:23.368Z,101674.13
2022-11-29T17:04:51.698Z,101671.53
2022-11-29T17:07:27.596Z,101667.47
2022-11-29T17:09:54.947Z,101670.19
2022-11-29T17:12:22.000Z,101673.06
2022-11-29T17:14:49.155Z,101675.34
2022-11-29T17:17:17.926Z,101672.34
2022-11-29T17:19:46.368Z,101660.03
2022-11-29T17:22:13.353Z,101674.41
2022-11-29T17:24:44.929Z,101679.41
2022-11-29T17:27:14.866Z,101674.72
2022-11-29T17:29:41.835Z,101671.06
2022-11-29T17:32:08.924Z,101682.22
2022-11-29T17:34:36.036Z,101677.63
2022-11-29T17:37:03.235Z,101679.16
2022-11-29T17:39:30.291Z,101676.38
2022-11-29T17:41:57.316Z,101673.50
2022-11-29T17:44:24.513Z,101660.47
2022-11-29T17:46:51.515Z,101671.56
2022-11-29T17:49:18.988Z,101686.44
2022-11-29T17:51:53.813Z,101670.56
2022-11-29T17:54:22.317Z,101683.19
2022-11-29T17:56:50.017Z,101685.63
2022-11-29T17:59:17.291Z,101685.44
2022-11-29T18:01:47.374Z,101685.34
2022-11-29T18:04:15.054Z,101692.31
2022-11-29T18:06:42.077Z,101691.28
2022-11-29T18:09:10.891Z,101699.06
2022-11-29T18:11:47.444Z,101684.31
2022-11-29T18:14:24.324Z,101688.59
2022-11-29T18:16:52.352Z,101704.03
2022-11-29T18:19:22.545Z,101705.78
2022-11-29T18:21:50.648Z,101703.06
2022-11-29T18:24:17.986Z,101716.13
2022-11-29T18:26:45.178Z,101719.56
2022-11-29T18:29:12.608Z,101712.66
2022-11-29T18:31:42.347Z,101707.38
2022-11-29T18:34:14.334Z,101715.38
2022-11-29T18:36:46.928Z,101709.38
2022-11-29T18:39:20.066Z,101712.06
2022-11-29T18:41:50.338Z,101717.56
2022-11-29T18:44:20.272Z,101730.53
2022-11-29T18:46:48.743Z,101720.19
2022-11-29T18:49:18.077Z,101734.84
2022-11-29T18:51:46.594Z,101724.38
2022-11-29T18:54:15.129Z,101724.38
2022-11-29T18:56:42.737Z,101729.09
2022-11-29T18:59:12.013Z,101737.72
2022-11-29T19:01:43.018Z,101744.56
2022-11-29T19:04:11.774Z,101741.81
2022-11-29T19:06:40.136Z,101745.16
2022-11-29T19:09:12.046Z,101744.91
2022-11-29T19:11:39.385Z,101745.59
2022-11-29T19:14:12.029Z,101728.97
2022-11-29T19:16:43.908Z,101747.84
2022-11-29T19:19:11.775Z,101748.47
2022-11-29T19:21:42.669Z,101755.28
2022-11-29T19:24:18.511Z,101744.41
2022-11-29T19:26:47.856Z,101744.13
2022-11-29T19:29:16.331Z,101749.25
2022-11-29T19:31:44.096Z,101755.25
2022-11-29T19:34:11.936Z,101733.38
2022-11-29T19:36:43.939Z,101735.69
2022-11-29T19:39:16.936Z,101743.34
2022-11-29T19:41:46.332Z,101739.72
2022-11-29T19:44:14.327Z,101745.81
2022-11-29T19:46:46.087Z,101755.34
2022-11-29T19:49:13.632Z,101755.28
2022-11-29T19:51:41.637Z,101763.09
2022-11-29T19:54:10.771Z,101769.19
2022-11-29T19:56:39.117Z,101770.91
2022-11-29T19:59:07.639Z,101768.22
2022-11-29T20:01:43.389Z,101751.66
2022-11-29T20:04:13.566Z,101765.44
2022-11-29T20:06:41.777Z,101761.25
2022-11-29T20:09:09.644Z,101761.13
2022-11-29T20:11:36.746Z,101774.88
2022-11-29T20:14:05.795Z,101764.34
2022-11-29T20:16:34.092Z,101769.53
2022-11-29T20:19:02.202Z,101760.78
2022-11-29T20:21:34.336Z,101772.84
2022-11-29T20:24:05.389Z,101779.84
2022-11-29T20:26:35.344Z,101766.81
2022-11-29T20:29:03.141Z,101779.84
2022-11-29T20:31:32.320Z,101780.69
2022-11-29T20:33:59.789Z,101780.53
2022-11-29T20:36:48.362Z,101782.22
2022-11-29T20:39:29.075Z,101789.09
2022-11-29T20:42:21.100Z,101787.09
2022-11-29T20:45:00.107Z,101769.53
2022-11-29T20:47:33.505Z,101785.00
2022-11-29T20:50:00.979Z,101779.66
2022-11-29T20:52:37.477Z,101789.25
2022-11-29T20:55:05.506Z,101790.03
2022-11-29T20:57:32.632Z,101789.13
2022-11-29T20:59:59.844Z,101784.72
2022-11-29T21:02:27.494Z,101784.75
2022-11-29T21:04:54.611Z,101783.41
2022-11-29T21:07:21.873Z,101770.78
2022-11-29T21:09:49.302Z,101778.72
2022-11-29T21:12:17.098Z,101771.22
2022-11-29T21:14:44.679Z,101772.00
2022-11-29T21:17:12.449Z,101761.88
2022-11-29T21:19:40.627Z,101771.31
2022-11-29T21:22:22.915Z,101768.03
2022-11-29T21:24:55.956Z,101761.13
2022-11-29T21:27:29.467Z,101764.81
2022-11-29T21:29:57.223Z,101771.03
2022-11-29T21:32:27.298Z,101759.75
2022-11-29T21:34:54.812Z,101746.09
2022-11-29T21:37:26.742Z,101744.31
2022-11-29T21:39:55.428Z,101766.16
2022-11-29T21:42:22.701Z,101771.50
2022-11-29T21:44:49.775Z,101769.09
2022-11-29T21:47:16.979Z,101764.84
2022-11-29T21:49:44.179Z,101762.59
2022-11-29T21:52:11.539Z,101761.78
2022-11-29T21:54:39.433Z,101778.22
2022-11-29T21:57:06.644Z,101761.06
2022-11-29T21:59:34.421Z,101771.66
2022-11-29T22:02:02.553Z,101782.06
2022-11-29T22:04:30.079Z,101771.03
2022-11-29T22:06:57.601Z,101778.78
2022-11-29T22:09:24.864Z,101770.94
2022-11-29T22:11:51.895Z,101784.22
2022-11-29T22:14:19.385Z,101787.84
2022-11-29T22:16:50.936Z,101784.50
2022-11-29T22:19:26.159Z,101780.94
2022-11-29T22:21:56.476Z,101776.63
2022-11-29T22:24:25.836Z,101784.63
2022-11-29T22:26:54.389Z,101771.44
2022-11-29T22:29:22.480Z,101784.44
2022-11-29T22:31:53.232Z,101776.03
2022-11-29T22:34:21.549Z,101778.56
2022-11-29T22:36:48.696Z,101777.78
2022-11-29T22:39:15.791Z,101765.94
2022-11-29T22:41:42.785Z,101779.75
2022-11-29T22:44:09.924Z,101779.91
2022-11-29T22:46:39.450Z,101785.22
2022-11-29T22:49:06.402Z,101780.06
2022-11-29T22:51:35.675Z,101769.63
2022-11-29T22:54:05.735Z,101773.22
2022-11-29T22:56:35.371Z,101775.91
2022-11-29T22:59:02.314Z,101775.09
2022-11-29T23:01:31.636Z,101774.31
2022-11-29T23:04:00.749Z,101760.53
2022-11-29T23:06:29.612Z,101781.50
2022-11-29T23:08:59.292Z,101768.69
2022-11-29T23:11:28.816Z,101781.63
2022-11-29T23:13:56.858Z,101785.22
2022-11-29T23:16:27.755Z,101784.41
2022-11-29T23:18:56.776Z,101788.84
2022-11-29T23:21:31.444Z,101783.66
2022-11-29T23:24:01.915Z,101789.00
2022-11-29T23:26:32.154Z,101783.81
2022-11-29T23:28:59.207Z,101780.38
2022-11-29T23:31:26.234Z,101778.97
2022-11-29T23:33:53.526Z,101797.22
2022-11-29T23:36:20.459Z,101779.94
2022-11-29T23:38:48.207Z,101788.78
2022-11-29T23:41:15.449Z,101801.78
2022-11-29T23:43:42.823Z,101780.97
2022-11-29T23:46:17.510Z,101802.78
2022-11-29T23:48:45.170Z,101801.03
2022-11-29T23:51:12.802Z,101804.59
2022-11-29T23:53:40.496Z,101795.03
2022-11-29T23:56:11.869Z,101792.72
2022-11-29T23:58:38.963Z,101806.63
